sensor_id;sensor_type;location;lat;lon;timestamp;pressure;altitude;pressure_sealevel;temperature;humidity
13420;BME280;6781;58.440;15.470;2023-08-24T00:01:53;101907.13;;;15.27;100.00
13420;BME280;6781;58.440;15.470;2023-08-24T00:04:20;101915.22;;;15.24;100.00
13420;BME280;6781;58.440;15.470;2023-08-24T00:06:48;101918.78;;;15.23;100.00
13420;BME280;6781;58.440;15.470;2023-08-24T00:09:15;101922.56;;;15.19;100.00
13420;BME280;6781;58.440;15.470;2023-08-24T00:11:43;101928.88;;;15.16;100.00
13420;BME280;6781;58.440;15.470;2023-08-24T00:14:10;101929.47;;;15.20;100.00
13420;BME280;6781;58.440;15.470;2023-08-24T00:16:37;101916.97;;;15.01;100.00
13420;BME280;6781;58.440;15.470;2023-08-24T00:19:04;101907.69;;;14.86;100.00
13420;BME280;6781;58.440;15.470;2023-08-24T00:21:32;101949.19;;;15.13;100.00
13420;BME280;6781;58.440;15.470;2023-08-24T00:23:59;101951.78;;;15.13;100.00
13420;BME280;6781;58.440;15.470;2023-08-24T00:26:26;101901.00;;;14.71;100.00
13420;BME280;6781;58.440;15.470;2023-08-24T00:28:54;101883.06;;;14.66;100.00
13420;BME280;6781;58.440;15.470;2023-08-24T00:31:21;101827.91;;;14.36;100.00
13420;BME280;6781;58.440;15.470;2023-08-24T00:33:48;101951.53;;;15.05;100.00
13420;BME280;6781;58.440;15.470;2023-08-24T00:36:16;101927.88;;;14.84;100.00
13420;BME280;6781;58.440;15.470;2023-08-24T00:38:43;101961.25;;;14.91;100.00
13420;BME280;6781;58.440;15.470;2023-08-24T00:41:12;101928.88;;;14.59;100.00
13420;BME280;6781;58.440;15.470;2023-08-24T00:43:39;102020.47;;;15.15;100.00
13420;BME280;6781;58.440;15.470;2023-08-24T00:46:08;102036.16;;;15.15;100.00
13420;BME280;6781;58.440;15.470;2023-08-24T00:48:34;102041.38;;;15.15;100.00
13420;BME280;6781;58.440;15.470;2023-08-24T00:51:02;102067.97;;;15.09;100.00
13420;BME280;6781;58.440;15.470;2023-08-24T00:53:30;102108.88;;;15.21;100.00
13420;BME280;6781;58.440;15.470;2023-08-24T00:55:58;102107.09;;;15.21;100.00
13420;BME280;6781;58.440;15.470;2023-08-24T00:58:26;102122.56;;;15.24;100.00
13420;BME280;6781;58.440;15.470;2023-08-24T01:00:53;102084.31;;;15.00;100.00
13420;BME280;6781;58.440;15.470;2023-08-24T01:03:23;102128.63;;;15.25;100.00
13420;BME280;6781;58.440;15.470;2023-08-24T01:05:51;102113.78;;;15.25;100.00
13420;BME280;6781;58.440;15.470;2023-08-24T01:08:18;102107.44;;;15.17;100.00
13420;BME280;6781;58.440;15.470;2023-08-24T01:10:50;102077.22;;;15.02;100.00
13420;BME280;6781;58.440;15.470;2023-08-24T01:13:25;102090.31;;;15.13;100.00
13420;BME280;6781;58.440;15.470;2023-08-24T01:15:58;102005.09;;;14.64;100.00
13420;BME280;6781;58.440;15.470;2023-08-24T01:18:29;101951.47;;;14.23;100.00
13420;BME280;6781;58.440;15.470;2023-08-24T01:20:57;101975.09;;;14.46;100.00
13420;BME280;6781;58.440;15.470;2023-08-24T01:23:33;101990.47;;;14.61;100.00
13420;BME280;6781;58.440;15.470;2023-08-24T01:26:08;102043.25;;;15.02;100.00
13420;BME280;6781;58.440;15.470;2023-08-24T01:28:36;101869.41;;;14.04;100.00
13420;BME280;6781;58.440;15.470;2023-08-24T01:31:04;102013.75;;;14.88;100.00
13420;BME280;6781;58.440;15.470;2023-08-24T01:33:31;101984.72;;;14.80;100.00
13420;BME280;6781;58.440;15.470;2023-08-24T01:35:58;101955.25;;;14.67;100.00
13420;BME280;6781;58.440;15.470;2023-08-24T01:38:25;101948.94;;;14.58;100.00
13420;BME280;6781;58.440;15.470;2023-08-24T01:40:58;101746.44;;;13.38;100.00
13420;BME280;6781;58.440;15.470;2023-08-24T01:43:29;101959.06;;;14.74;100.00
13420;BME280;6781;58.440;15.470;2023-08-24T01:46:00;101951.56;;;14.70;100.00
13420;BME280;6781;58.440;15.470;2023-08-24T01:48:28;101883.94;;;14.19;100.00
13420;BME280;6781;58.440;15.470;2023-08-24T01:50:56;101939.53;;;14.56;100.00
13420;BME280;6781;58.440;15.470;2023-08-24T01:53:24;101940.22;;;14.47;100.00
13420;BME280;6781;58.440;15.470;2023-08-24T01:55:52;101932.38;;;14.23;100.00
13420;BME280;6781;58.440;15.470;2023-08-24T01:58:20;101723.72;;;13.03;100.00
13420;BME280;6781;58.440;15.470;2023-08-24T02:00:48;101944.06;;;14.41;100.00
13420;BME280;6781;58.440;15.470;2023-08-24T02:05:50;101891.50;;;14.11;100.00
13420;BME280;6781;58.440;15.470;2023-08-24T02:08:17;101939.41;;;14.33;100.00
13420;BME280;6781;58.440;15.470;2023-08-24T02:10:44;101904.66;;;14.09;100.00
13420;BME280;6781;58.440;15.470;2023-08-24T02:13:11;101795.63;;;13.43;100.00
13420;BME280;6781;58.440;15.470;2023-08-24T02:15:38;101939.13;;;14.25;100.00
13420;BME280;6781;58.440;15.470;2023-08-24T02:18:07;101944.09;;;14.17;100.00
13420;BME280;6781;58.440;15.470;2023-08-24T02:20:35;101806.31;;;13.27;100.00
13420;BME280;6781;58.440;15.470;2023-08-24T02:23:02;101742.19;;;12.88;100.00
13420;BME280;6781;58.440;15.470;2023-08-24T02:25:29;101951.19;;;14.15;100.00
13420;BME280;6781;58.440;15.470;2023-08-24T02:27:56;101953.28;;;14.10;100.00
13420;BME280;6781;58.440;15.470;2023-08-24T02:30:23;101962.06;;;14.09;100.00
13420;BME280;6781;58.440;15.470;2023-08-24T02:32:50;101928.38;;;13.82;100.00
13420;BME280;6781;58.440;15.470;2023-08-24T02:35:19;101960.63;;;14.05;100.00
13420;BME280;6781;58.440;15.470;2023-08-24T02:37:46;101872.88;;;13.44;100.00
13420;BME280;6781;58.440;15.470;2023-08-24T02:40:14;101946.06;;;13.90;100.00
13420;BME280;6781;58.440;15.470;2023-08-24T02:42:41;101833.94;;;13.17;100.00
13420;BME280;6781;58.440;15.470;2023-08-24T02:45:09;101980.25;;;13.98;100.00
13420;BME280;6781;58.440;15.470;2023-08-24T02:47:36;101827.59;;;13.08;100.00
13420;BME280;6781;58.440;15.470;2023-08-24T02:50:06;101967.31;;;13.96;100.00
13420;BME280;6781;58.440;15.470;2023-08-24T02:52:35;101974.81;;;14.01;100.00
13420;BME280;6781;58.440;15.470;2023-08-24T02:55:01;101978.38;;;14.00;100.00
13420;BME280;6781;58.440;15.470;2023-08-24T02:57:30;101959.38;;;13.98;100.00
13420;BME280;6781;58.440;15.470;2023-08-24T02:59:57;101962.94;;;13.97;100.00
13420;BME280;6781;58.440;15.470;2023-08-24T03:02:23;101956.78;;;13.98;100.00
13420;BME280;6781;58.440;15.470;2023-08-24T03:04:51;101930.88;;;13.84;100.00
13420;BME280;6781;58.440;15.470;2023-08-24T03:07:17;101796.25;;;12.97;100.00
13420;BME280;6781;58.440;15.470;2023-08-24T03:09:46;101917.28;;;13.55;100.00
13420;BME280;6781;58.440;15.470;2023-08-24T03:12:13;101832.06;;;13.19;100.00
13420;BME280;6781;58.440;15.470;2023-08-24T03:14:40;101938.22;;;13.90;100.00
13420;BME280;6781;58.440;15.470;2023-08-24T03:17:07;101940.00;;;13.89;100.00
13420;BME280;6781;58.440;15.470;2023-08-24T03:19:34;101808.22;;;12.99;100.00
13420;BME280;6781;58.440;15.470;2023-08-24T03:22:01;101938.59;;;13.85;100.00
13420;BME280;6781;58.440;15.470;2023-08-24T03:24:28;101926.72;;;13.81;100.00
13420;BME280;6781;58.440;15.470;2023-08-24T03:26:56;101806.00;;;13.06;100.00
13420;BME280;6781;58.440;15.470;2023-08-24T03:29:23;101901.50;;;13.69;100.00
13420;BME280;6781;58.440;15.470;2023-08-24T03:31:50;101907.53;;;13.70;100.00
13420;BME280;6781;58.440;15.470;2023-08-24T03:34:17;101900.44;;;13.72;100.00
13420;BME280;6781;58.440;15.470;2023-08-24T03:36:46;101848.81;;;13.40;100.00
13420;BME280;6781;58.440;15.470;2023-08-24T03:39:13;101898.06;;;13.68;100.00
13420;BME280;6781;58.440;15.470;2023-08-24T03:41:41;101863.06;;;13.47;100.00
13420;BME280;6781;58.440;15.470;2023-08-24T03:44:09;101893.09;;;13.53;100.00
13420;BME280;6781;58.440;15.470;2023-08-24T03:46:36;101901.34;;;13.47;100.00
13420;BME280;6781;58.440;15.470;2023-08-24T03:49:03;101917.38;;;13.53;100.00
13420;BME280;6781;58.440;15.470;2023-08-24T03:51:30;101728.09;;;12.28;100.00
13420;BME280;6781;58.440;15.470;2023-08-24T03:53:57;101916.22;;;13.57;100.00
13420;BME280;6781;58.440;15.470;2023-08-24T03:56:24;101905.91;;;13.56;100.00
13420;BME280;6781;58.440;15.470;2023-08-24T03:58:51;101907.56;;;13.57;100.00
13420;BME280;6781;58.440;15.470;2023-08-24T04:01:19;101906.75;;;13.56;100.00
13420;BME280;6781;58.440;15.470;2023-08-24T04:03:46;101909.34;;;13.56;100.00
13420;BME280;6781;58.440;15.470;2023-08-24T04:06:13;101854.03;;;13.15;100.00
13420;BME280;6781;58.440;15.470;2023-08-24T04:08:40;101914.69;;;13.55;100.00
13420;BME280;6781;58.440;15.470;2023-08-24T04:11:07;101781.06;;;12.53;100.00
13420;BME280;6781;58.440;15.470;2023-08-24T04:13:34;101915.66;;;13.28;100.00
13420;BME280;6781;58.440;15.470;2023-08-24T04:16:01;101921.16;;;13.24;100.00
13420;BME280;6781;58.440;15.470;2023-08-24T04:18:31;101921.47;;;13.32;100.00
13420;BME280;6781;58.440;15.470;2023-08-24T04:20:57;101965.13;;;13.66;100.00
13420;BME280;6781;58.440;15.470;2023-08-24T04:23:25;101926.59;;;13.33;100.00
13420;BME280;6781;58.440;15.470;2023-08-24T04:25:52;101930.75;;;13.36;100.00
13420;BME280;6781;58.440;15.470;2023-08-24T04:28:19;101977.00;;;13.71;100.00
13420;BME280;6781;58.440;15.470;2023-08-24T04:30:50;101847.50;;;12.96;100.00
13420;BME280;6781;58.440;15.470;2023-08-24T04:33:18;101972.44;;;13.61;100.00
13420;BME280;6781;58.440;15.470;2023-08-24T04:35:47;101996.63;;;13.76;100.00
13420;BME280;6781;58.440;15.470;2023-08-24T04:38:17;102006.00;;;13.79;100.00
13420;BME280;6781;58.440;15.470;2023-08-24T04:40:48;101984.31;;;13.65;100.00
13420;BME280;6781;58.440;15.470;2023-08-24T04:43:16;101934.50;;;13.45;100.00
13420;BME280;6781;58.440;15.470;2023-08-24T04:45:45;102010.53;;;13.88;100.00
13420;BME280;6781;58.440;15.470;2023-08-24T04:48:12;102008.66;;;13.90;100.00
13420;BME280;6781;58.440;15.470;2023-08-24T04:50:42;101763.25;;;12.34;100.00
13420;BME280;6781;58.440;15.470;2023-08-24T04:53:12;101870.00;;;12.97;100.00
13420;BME280;6781;58.440;15.470;2023-08-24T04:55:40;101942.84;;;13.37;100.00
13420;BME280;6781;58.440;15.470;2023-08-24T04:58:07;101941.59;;;13.30;100.00
13420;BME280;6781;58.440;15.470;2023-08-24T05:00:34;101993.91;;;13.65;100.00
13420;BME280;6781;58.440;15.470;2023-08-24T05:03:01;101823.00;;;12.35;100.00
13420;BME280;6781;58.440;15.470;2023-08-24T05:05:28;101925.88;;;13.19;100.00
13420;BME280;6781;58.440;15.470;2023-08-24T05:07:57;102009.97;;;13.72;100.00
13420;BME280;6781;58.440;15.470;2023-08-24T05:10:32;102042.78;;;13.87;100.00
13420;BME280;6781;58.440;15.470;2023-08-24T05:13:02;102037.06;;;13.82;100.00
13420;BME280;6781;58.440;15.470;2023-08-24T05:15:30;102001.31;;;13.58;100.00
13420;BME280;6781;58.440;15.470;2023-08-24T05:17:57;101971.00;;;13.32;100.00
13420;BME280;6781;58.440;15.470;2023-08-24T05:20:25;101869.22;;;12.45;100.00
13420;BME280;6781;58.440;15.470;2023-08-24T05:22:52;102080.91;;;13.77;100.00
13420;BME280;6781;58.440;15.470;2023-08-24T05:25:20;102131.78;;;14.08;100.00
13420;BME280;6781;58.440;15.470;2023-08-24T05:27:49;102163.19;;;14.19;100.00
13420;BME280;6781;58.440;15.470;2023-08-24T05:30:16;102185.84;;;14.18;100.00
13420;BME280;6781;58.440;15.470;2023-08-24T05:32:43;102148.47;;;13.92;100.00
13420;BME280;6781;58.440;15.470;2023-08-24T05:35:10;102220.06;;;14.14;100.00
13420;BME280;6781;58.440;15.470;2023-08-24T05:37:38;102185.41;;;13.74;100.00
13420;BME280;6781;58.440;15.470;2023-08-24T05:40:05;102146.16;;;13.50;100.00
13420;BME280;6781;58.440;15.470;2023-08-24T05:42:32;102230.06;;;13.94;100.00
13420;BME280;6781;58.440;15.470;2023-08-24T05:45:04;102167.13;;;13.48;100.00
13420;BME280;6781;58.440;15.470;2023-08-24T05:47:31;102126.50;;;13.04;100.00
13420;BME280;6781;58.440;15.470;2023-08-24T05:49:58;102332.84;;;14.31;100.00
13420;BME280;6781;58.440;15.470;2023-08-24T05:52:25;102349.25;;;14.33;100.00
13420;BME280;6781;58.440;15.470;2023-08-24T05:54:52;102248.00;;;13.74;100.00
13420;BME280;6781;58.440;15.470;2023-08-24T05:57:19;102377.56;;;14.40;100.00
13420;BME280;6781;58.440;15.470;2023-08-24T05:59:47;102371.28;;;14.29;100.00
13420;BME280;6781;58.440;15.470;2023-08-24T06:02:15;102382.63;;;14.43;100.00
13420;BME280;6781;58.440;15.470;2023-08-24T06:04:42;102388.69;;;14.56;100.00
13420;BME280;6781;58.440;15.470;2023-08-24T06:07:09;102399.13;;;14.56;100.00
13420;BME280;6781;58.440;15.470;2023-08-24T06:09:36;102356.09;;;14.49;100.00
13420;BME280;6781;58.440;15.470;2023-08-24T06:12:03;102377.84;;;14.75;100.00
13420;BME280;6781;58.440;15.470;2023-08-24T06:14:30;102353.28;;;14.77;100.00
13420;BME280;6781;58.440;15.470;2023-08-24T06:16:57;102300.09;;;14.78;100.00
13420;BME280;6781;58.440;15.470;2023-08-24T06:19:25;102260.59;;;14.83;100.00
13420;BME280;6781;58.440;15.470;2023-08-24T06:21:52;102021.88;;;13.50;100.00
13420;BME280;6781;58.440;15.470;2023-08-24T06:24:20;102225.88;;;14.93;100.00
13420;BME280;6781;58.440;15.470;2023-08-24T06:26:46;102162.16;;;14.83;100.00
13420;BME280;6781;58.440;15.470;2023-08-24T06:29:13;102123.69;;;14.85;100.00
13420;BME280;6781;58.440;15.470;2023-08-24T06:31:40;102112.56;;;14.94;100.00
13420;BME280;6781;58.440;15.470;2023-08-24T06:34:07;102053.31;;;14.71;100.00
13420;BME280;6781;58.440;15.470;2023-08-24T06:36:36;102024.88;;;14.79;100.00
13420;BME280;6781;58.440;15.470;2023-08-24T06:39:03;102025.44;;;15.07;100.00
13420;BME280;6781;58.440;15.470;2023-08-24T06:41:33;101992.19;;;15.09;100.00
13420;BME280;6781;58.440;15.470;2023-08-24T06:44:00;101926.44;;;14.80;100.00
13420;BME280;6781;58.440;15.470;2023-08-24T06:46:27;101958.22;;;15.31;100.00
13420;BME280;6781;58.440;15.470;2023-08-24T06:48:53;101953.00;;;15.42;100.00
13420;BME280;6781;58.440;15.470;2023-08-24T06:51:20;101870.53;;;15.38;100.00
13420;BME280;6781;58.440;15.470;2023-08-24T06:53:49;101868.09;;;15.69;100.00
13420;BME280;6781;58.440;15.470;2023-08-24T06:56:16;101803.81;;;15.55;100.00
13420;BME280;6781;58.440;15.470;2023-08-24T06:58:43;101654.13;;;14.98;100.00
13420;BME280;6781;58.440;15.470;2023-08-24T07:01:11;101748.13;;;15.96;100.00
13420;BME280;6781;58.440;15.470;2023-08-24T07:03:38;101714.72;;;16.09;100.00
13420;BME280;6781;58.440;15.470;2023-08-24T07:06:05;101678.69;;;16.22;100.00
13420;BME280;6781;58.440;15.470;2023-08-24T07:08:33;101643.44;;;16.26;100.00
13420;BME280;6781;58.440;15.470;2023-08-24T07:11:01;101582.09;;;16.19;100.00
13420;BME280;6781;58.440;15.470;2023-08-24T07:13:28;101579.81;;;16.36;100.00
13420;BME280;6781;58.440;15.470;2023-08-24T07:15:55;101510.72;;;16.17;100.00
13420;BME280;6781;58.440;15.470;2023-08-24T07:18:22;101469.91;;;16.05;100.00
13420;BME280;6781;58.440;15.470;2023-08-24T07:20:49;101458.50;;;16.25;100.00
13420;BME280;6781;58.440;15.470;2023-08-24T07:23:16;101484.47;;;16.67;100.00
13420;BME280;6781;58.440;15.470;2023-08-24T07:25:43;101423.25;;;16.39;100.00
13420;BME280;6781;58.440;15.470;2023-08-24T07:28:12;101332.31;;;15.93;100.00
13420;BME280;6781;58.440;15.470;2023-08-24T07:30:39;101293.19;;;16.01;100.00
13420;BME280;6781;58.440;15.470;2023-08-24T07:33:05;101371.53;;;16.60;100.00
13420;BME280;6781;58.440;15.470;2023-08-24T07:35:32;101397.81;;;16.98;100.00
13420;BME280;6781;58.440;15.470;2023-08-24T07:38:00;101351.84;;;16.66;100.00
13420;BME280;6781;58.440;15.470;2023-08-24T07:40:29;101326.47;;;16.57;100.00
13420;BME280;6781;58.440;15.470;2023-08-24T07:42:56;101244.69;;;16.16;100.00
13420;BME280;6781;58.440;15.470;2023-08-24T07:45:24;101252.50;;;16.36;100.00
13420;BME280;6781;58.440;15.470;2023-08-24T07:47:52;101281.31;;;16.36;100.00
13420;BME280;6781;58.440;15.470;2023-08-24T07:50:19;101256.06;;;16.44;100.00
13420;BME280;6781;58.440;15.470;2023-08-24T07:52:47;101249.56;;;16.48;100.00
13420;BME280;6781;58.440;15.470;2023-08-24T07:55:14;101163.19;;;16.02;100.00
13420;BME280;6781;58.440;15.470;2023-08-24T07:57:41;101242.75;;;16.75;100.00
13420;BME280;6781;58.440;15.470;2023-08-24T08:00:09;101145.06;;;16.27;100.00
13420;BME280;6781;58.440;15.470;2023-08-24T08:02:40;101206.44;;;16.80;100.00
13420;BME280;6781;58.440;15.470;2023-08-24T08:05:07;101219.22;;;16.92;100.00
13420;BME280;6781;58.440;15.470;2023-08-24T08:07:35;101189.19;;;17.05;100.00
13420;BME280;6781;58.440;15.470;2023-08-24T08:10:04;101134.75;;;16.81;100.00
13420;BME280;6781;58.440;15.470;2023-08-24T08:12:32;101155.50;;;17.10;100.00
13420;BME280;6781;58.440;15.470;2023-08-24T08:14:59;101040.13;;;16.39;100.00
13420;BME280;6781;58.440;15.470;2023-08-24T08:17:26;101189.78;;;17.70;100.00
13420;BME280;6781;58.440;15.470;2023-08-24T08:19:57;101066.81;;;17.23;100.00
13420;BME280;6781;58.440;15.470;2023-08-24T08:22:24;101177.53;;;18.30;100.00
13420;BME280;6781;58.440;15.470;2023-08-24T08:24:51;101138.41;;;18.19;100.00
13420;BME280;6781;58.440;15.470;2023-08-24T08:27:19;101070.59;;;18.06;100.00
13420;BME280;6781;58.440;15.470;2023-08-24T08:29:47;101050.00;;;18.36;100.00
13420;BME280;6781;58.440;15.470;2023-08-24T08:32:14;101075.19;;;18.54;100.00
13420;BME280;6781;58.440;15.470;2023-08-24T08:34:41;101056.63;;;18.56;100.00
13420;BME280;6781;58.440;15.470;2023-08-24T08:37:09;101008.63;;;18.30;100.00
13420;BME280;6781;58.440;15.470;2023-08-24T08:39:36;100998.00;;;18.56;100.00
13420;BME280;6781;58.440;15.470;2023-08-24T08:42:03;101005.09;;;18.79;100.00
13420;BME280;6781;58.440;15.470;2023-08-24T08:44:31;100993.59;;;18.89;100.00
13420;BME280;6781;58.440;15.470;2023-08-24T08:46:58;100890.28;;;18.47;100.00
13420;BME280;6781;58.440;15.470;2023-08-24T08:49:25;100864.50;;;18.35;100.00
13420;BME280;6781;58.440;15.470;2023-08-24T08:51:53;100913.13;;;18.63;100.00
13420;BME280;6781;58.440;15.470;2023-08-24T08:54:21;100948.84;;;19.13;100.00
13420;BME280;6781;58.440;15.470;2023-08-24T08:56:49;100931.75;;;19.09;100.00
13420;BME280;6781;58.440;15.470;2023-08-24T08:59:17;100853.31;;;18.73;100.00
13420;BME280;6781;58.440;15.470;2023-08-24T09:01:45;100859.00;;;19.01;100.00
13420;BME280;6781;58.440;15.470;2023-08-24T09:04:16;100899.28;;;19.41;100.00
13420;BME280;6781;58.440;15.470;2023-08-24T09:06:44;100891.84;;;19.53;100.00
13420;BME280;6781;58.440;15.470;2023-08-24T09:09:11;100900.03;;;19.58;100.00
13420;BME280;6781;58.440;15.470;2023-08-24T09:11:40;100878.59;;;18.82;100.00
13420;BME280;6781;58.440;15.470;2023-08-24T09:14:07;100886.66;;;19.28;100.00
13420;BME280;6781;58.440;15.470;2023-08-24T09:16:35;100806.03;;;18.65;100.00
13420;BME280;6781;58.440;15.470;2023-08-24T09:19:05;100885.00;;;19.35;100.00
13420;BME280;6781;58.440;15.470;2023-08-24T09:21:36;100808.75;;;18.96;100.00
13420;BME280;6781;58.440;15.470;2023-08-24T09:24:05;100888.75;;;19.41;100.00
13420;BME280;6781;58.440;15.470;2023-08-24T09:26:33;100825.53;;;19.18;100.00
13420;BME280;6781;58.440;15.470;2023-08-24T09:29:12;100865.44;;;19.69;100.00
13420;BME280;6781;58.440;15.470;2023-08-24T09:31:39;100806.53;;;19.39;100.00
13420;BME280;6781;58.440;15.470;2023-08-24T09:34:06;100872.03;;;20.19;100.00
13420;BME280;6781;58.440;15.470;2023-08-24T09:36:34;100834.22;;;20.11;100.00
13420;BME280;6781;58.440;15.470;2023-08-24T09:39:04;100850.59;;;19.99;100.00
13420;BME280;6781;58.440;15.470;2023-08-24T09:41:38;100761.47;;;19.42;100.00
13420;BME280;6781;58.440;15.470;2023-08-24T09:44:07;100751.69;;;19.59;100.00
13420;BME280;6781;58.440;15.470;2023-08-24T09:46:34;100668.75;;;19.40;100.00
13420;BME280;6781;58.440;15.470;2023-08-24T09:49:05;100821.97;;;20.56;100.00
13420;BME280;6781;58.440;15.470;2023-08-24T09:51:33;100817.97;;;20.60;100.00
13420;BME280;6781;58.440;15.470;2023-08-24T09:54:02;100826.34;;;20.49;100.00
13420;BME280;6781;58.440;15.470;2023-08-24T09:56:34;100802.44;;;20.51;100.00
13420;BME280;6781;58.440;15.470;2023-08-24T09:59:10;100806.16;;;20.71;100.00
13420;BME280;6781;58.440;15.470;2023-08-24T10:01:40;100817.69;;;20.85;100.00
13420;BME280;6781;58.440;15.470;2023-08-24T10:04:09;100802.94;;;21.05;100.00
13420;BME280;6781;58.440;15.470;2023-08-24T10:06:38;100689.56;;;19.72;100.00
13420;BME280;6781;58.440;15.470;2023-08-24T10:09:08;100761.22;;;20.94;100.00
13420;BME280;6781;58.440;15.470;2023-08-24T10:11:40;100803.06;;;21.90;100.00
13420;BME280;6781;58.440;15.470;2023-08-24T10:14:15;100774.25;;;21.95;100.00
13420;BME280;6781;58.440;15.470;2023-08-24T10:16:46;100749.88;;;21.72;100.00
13420;BME280;6781;58.440;15.470;2023-08-24T10:19:14;100759.38;;;21.88;100.00
13420;BME280;6781;58.440;15.470;2023-08-24T10:21:42;100751.91;;;21.70;100.00
13420;BME280;6781;58.440;15.470;2023-08-24T10:24:09;100765.84;;;21.85;100.00
13420;BME280;6781;58.440;15.470;2023-08-24T10:26:39;100719.88;;;21.80;100.00
13420;BME280;6781;58.440;15.470;2023-08-24T10:29:06;100717.91;;;21.88;100.00
13420;BME280;6781;58.440;15.470;2023-08-24T10:31:35;100640.13;;;20.99;100.00
13420;BME280;6781;58.440;15.470;2023-08-24T10:34:05;100717.84;;;21.54;100.00
13420;BME280;6781;58.440;15.470;2023-08-24T10:36:33;100744.94;;;22.12;100.00
13420;BME280;6781;58.440;15.470;2023-08-24T10:39:02;100751.69;;;22.49;100.00
13420;BME280;6781;58.440;15.470;2023-08-24T10:41:46;100748.84;;;22.57;100.00
13420;BME280;6781;58.440;15.470;2023-08-24T10:44:20;100703.59;;;22.32;100.00
13420;BME280;6781;58.440;15.470;2023-08-24T10:47:10;100711.81;;;21.88;100.00
13420;BME280;6781;58.440;15.470;2023-08-24T10:49:39;100723.34;;;22.36;100.00
13420;BME280;6781;58.440;15.470;2023-08-24T10:52:32;100719.06;;;22.35;100.00
13420;BME280;6781;58.440;15.470;2023-08-24T10:55:01;100713.91;;;21.71;100.00
13420;BME280;6781;58.440;15.470;2023-08-24T10:57:35;100724.91;;;20.96;100.00
13420;BME280;6781;58.440;15.470;2023-08-24T11:00:05;100713.34;;;20.75;100.00
13420;BME280;6781;58.440;15.470;2023-08-24T11:02:44;100622.06;;;19.94;100.00
13420;BME280;6781;58.440;15.470;2023-08-24T11:05:19;100710.47;;;20.92;100.00
13420;BME280;6781;58.440;15.470;2023-08-24T11:07:54;100744.34;;;21.46;100.00
13420;BME280;6781;58.440;15.470;2023-08-24T11:10:22;100675.72;;;20.23;100.00
13420;BME280;6781;58.440;15.470;2023-08-24T11:13:11;100738.81;;;21.04;100.00
13420;BME280;6781;58.440;15.470;2023-08-24T11:15:40;100724.91;;;20.96;100.00
13420;BME280;6781;58.440;15.470;2023-08-24T11:18:22;100589.59;;;20.38;100.00
13420;BME280;6781;58.440;15.470;2023-08-24T11:20:52;100713.00;;;21.00;100.00
13420;BME280;6781;58.440;15.470;2023-08-24T11:23:20;100579.53;;;20.27;100.00
13420;BME280;6781;58.440;15.470;2023-08-24T11:25:49;100669.81;;;20.86;100.00
13420;BME280;6781;58.440;15.470;2023-08-24T11:28:22;100728.13;;;21.49;100.00
13420;BME280;6781;58.440;15.470;2023-08-24T11:30:50;100714.56;;;21.52;100.00
13420;BME280;6781;58.440;15.470;2023-08-24T11:33:28;100701.50;;;21.22;100.00
13420;BME280;6781;58.440;15.470;2023-08-24T11:35:56;100641.53;;;21.16;100.00
13420;BME280;6781;58.440;15.470;2023-08-24T11:38:23;100615.91;;;20.89;100.00
13420;BME280;6781;58.440;15.470;2023-08-24T11:40:50;100718.22;;;21.29;100.00
13420;BME280;6781;58.440;15.470;2023-08-24T11:43:24;100667.66;;;21.11;100.00
13420;BME280;6781;58.440;15.470;2023-08-24T11:45:51;100670.03;;;21.06;100.00
13420;BME280;6781;58.440;15.470;2023-08-24T11:48:18;100723.75;;;21.56;100.00
13420;BME280;6781;58.440;15.470;2023-08-24T11:50:47;100716.06;;;21.61;100.00
13420;BME280;6781;58.440;15.470;2023-08-24T11:53:16;100568.13;;;20.56;100.00
13420;BME280;6781;58.440;15.470;2023-08-24T11:55:43;100618.25;;;20.77;100.00
13420;BME280;6781;58.440;15.470;2023-08-24T11:58:14;100708.53;;;21.36;100.00
13420;BME280;6781;58.440;15.470;2023-08-24T12:00:42;100679.94;;;20.46;100.00
13420;BME280;6781;58.440;15.470;2023-08-24T12:03:10;100636.56;;;20.49;100.00
13420;BME280;6781;58.440;15.470;2023-08-24T12:05:38;100638.38;;;20.85;100.00
13420;BME280;6781;58.440;15.470;2023-08-24T12:08:06;100604.59;;;20.95;100.00
13420;BME280;6781;58.440;15.470;2023-08-24T12:10:33;100628.28;;;20.67;100.00
13420;BME280;6781;58.440;15.470;2023-08-24T12:13:03;100569.91;;;20.04;100.00
13420;BME280;6781;58.440;15.470;2023-08-24T12:15:30;100622.41;;;20.50;100.00
13420;BME280;6781;58.440;15.470;2023-08-24T12:18:07;100647.50;;;20.46;100.00
13420;BME280;6781;58.440;15.470;2023-08-24T12:20:34;100719.31;;;21.20;100.00
13420;BME280;6781;58.440;15.470;2023-08-24T12:23:01;100636.38;;;20.65;100.00
13420;BME280;6781;58.440;15.470;2023-08-24T12:25:29;100712.94;;;21.15;100.00
13420;BME280;6781;58.440;15.470;2023-08-24T12:28:08;100734.41;;;21.26;100.00
13420;BME280;6781;58.440;15.470;2023-08-24T12:30:47;100598.34;;;20.74;100.00
13420;BME280;6781;58.440;15.470;2023-08-24T12:33:24;100667.66;;;21.11;100.00
13420;BME280;6781;58.440;15.470;2023-08-24T12:35:52;100667.44;;;21.27;100.00
13420;BME280;6781;58.440;15.470;2023-08-24T12:38:19;100673.78;;;21.54;100.00
13420;BME280;6781;58.440;15.470;2023-08-24T12:40:48;100729.16;;;21.48;100.00
13420;BME280;6781;58.440;15.470;2023-08-24T12:43:15;100674.03;;;21.38;100.00
13420;BME280;6781;58.440;15.470;2023-08-24T12:45:42;100711.66;;;21.68;100.00
13420;BME280;6781;58.440;15.470;2023-08-24T12:48:09;100727.53;;;21.96;100.00
13420;BME280;6781;58.440;15.470;2023-08-24T12:50:38;100650.97;;;21.47;100.00